CheckWX is a tool to help pilots better visualize weather data.  It is not intended as a substitute for an official pre-flight weather briefing.

14:43:39 UTC

KAIG METAR
Langlade County Airport
Antigo, Wisconsin, USA
Current

9 mins ago

KAIG 201435Z AUTO 35016G21KT 10SM OVC020 08/03 A3006 RMK AO2 T00760032
Observed
May-20 @ 14:35 UTC
Wind
  • 350° at 16 KTS
  • Gusting to 21 KTS
Visibility
10 SM
Flight Rules
MVFR
Cloud Levels
  • Overcast at 2,000' AGL
Temperature
C / 46°F
Dewpoint
C / 37°F
Humidity
71%
Altimeter
30.06" Hg
Pressure
1017.92 hPa
Previous

29 mins ago

KAIG 201415Z AUTO 35010G15KT 10SM BKN016 OVC023 07/04 A3005 RMK AO2 T00660036
Observed
May-20 @ 14:15 UTC
Wind
  • 350° at 10 KTS
  • Gusting to 15 KTS
Visibility
10 SM
Flight Rules
MVFR
Cloud Levels
  • Broken at 1,600' AGL
  • Overcast at 2,300' AGL
Temperature
C / 45°F
Dewpoint
C / 39°F
Humidity
81%
Altimeter
30.05" Hg
Pressure
1017.62 hPa
Previous

49 mins ago

KAIG 201355Z AUTO 35014G17KT 10SM OVC016 06/04 A3004 RMK AO2 T00630035
Observed
May-20 @ 13:55 UTC
Wind
  • 350° at 14 KTS
  • Gusting to 17 KTS
Visibility
10 SM
Flight Rules
MVFR
Cloud Levels
  • Overcast at 1,600' AGL
Temperature
C / 43°F
Dewpoint
C / 39°F
Humidity
87%
Altimeter
30.04" Hg
Pressure
1017.32 hPa